Airfield :
LOGIN :

Register | Disclaimer

   EN    FR    IT 

 










Legend :    VFR   Marginal VFR   IFR   Intensive IFR   Very Intensive IFR
Visi :
Ceiling :
>= 8 km
>= 3000ft
5 to 8 km
1000 to 3000 ft
1500m to 5 km
500 to 1000 ft
800 to 1500m
200 to 500 ft
< 800m
< 200 ft
Symbols :   Thunderstorms  Fog  Heavy snow  Heavy precipitations  Wind > 20 kt
SIGMETs :     Misc.  Thunderstorms  Icing  Turbulence  Mountain Waves  Volcanic Ashes







- Airport Elevation : 171 ft
- IATA code : EGC
- Download approach charts


LFBE - Bergerac

CURRENT METAR :
  • 300100Z AUTO 27005KT CAVOK 18/16 Q1016 TEMPO BKN012TCU

EXPIRED METARs :
  • 300030Z AUTO 28004KT CAVOK 18/16 Q1016 TEMPO BKN012TCU
  • 300000Z AUTO 27006KT 9999 SCT036 BKN082 BKN100 18/17 Q1016 TEMPO BKN012TCU
  • 292330Z AUTO 25004KT 9999 SCT034/// BKN098/// BKN130/// ///TCU 18/17 Q1017 TEMPO BKN012TCU
  • 292300Z AUTO 28003KT 9999 ///TCU 18/17 Q1016
  • 292230Z AUTO 27007KT CAVOK 19/17 Q1016

TAF TAF LFBE
Valid from the 30 at 00:00 until the 31 at 00:00 UTC


292300Z 3000/3024 30005KT CAVOK
PROB40
TEMPO 3000/3004 -RA BKN012TCU
BECMG 3004/3006 BKN010
TEMPO 3004/3013 4000 -RA BKN005
BECMG 3013/3015 BKN020
BECMG 3016/3018 CAVOK
PROB30
TEMPO 3018/3024 SHRA SCT030TCU
No reported NOTAMs for that airfield.
2 SIGMETs reported for the Bordeaux FIR (LFBB) :
 
Embedded thunderstorms
LFBB SIGMET 2 VALID 300030/300200 LFPW
LFBB BORDEAUX FIR/UIR EMBD TS OBS AT 0020Z WI N4330 W00115 - N4400 W00145 - N4445 W00100 - N4415 W00030 TOP FL390 MOV NE 20KT NC=
Embedded thunderstorms
LFBB SIGMET 1 VALID 300000/300200 LFPW
LFBB BORDEAUX FIR/UIR EMBD TS OBS AT 2350Z WI N4715 E00145 - N4715 E00200 - N4645 E00245 - N4330 E00230 - N4445 E00100 TOP FL390 MOV NE 25KT NC=



MET'MAP, your aeronautical weather chart ! - Copyright ORBIFLY December 2007 - Disclaimer

ORBIFLY MET'MAP TEAM :

Programming & Development : Alexandra Zaïnal
Concept & Development : Baudouin d'Aumeries
Co-Development & Prog : Marc-Olivier Méhu
Technical & hardware support : Manuel Goepfert

Contact : metmap@orbifly.com




SOURCES & CREDITS :

   NOAA